createdAt,value
2023-03-23T00:00:55.118Z,0
2023-03-23T00:02:09.391Z,0
2023-03-23T00:03:23.680Z,0
2023-03-23T00:04:38.089Z,0
2023-03-23T00:05:52.407Z,0
2023-03-23T00:07:06.696Z,0
2023-03-23T00:08:20.976Z,0
2023-03-23T00:09:35.377Z,0
2023-03-23T00:10:49.704Z,0
2023-03-23T00:12:03.974Z,0
2023-03-23T00:13:18.399Z,0
2023-03-23T00:14:32.818Z,0
2023-03-23T00:15:47.135Z,0
2023-03-23T00:17:01.411Z,0
2023-03-23T00:18:15.826Z,0
2023-03-23T00:19:30.221Z,0
2023-03-23T00:20:44.543Z,0
2023-03-23T00:21:58.831Z,0
2023-03-23T00:23:13.110Z,0
2023-03-23T00:24:27.512Z,0
2023-03-23T00:25:41.847Z,0
2023-03-23T00:26:56.128Z,0
2023-03-23T00:28:10.408Z,0
2023-03-23T00:29:24.764Z,0
2023-03-23T00:30:39.066Z,0
2023-03-23T00:31:53.344Z,0
2023-03-23T00:33:07.622Z,0
2023-03-23T00:34:22.030Z,0
2023-03-23T00:36:50.633Z,0
2023-03-23T00:38:05.028Z,0
2023-03-23T00:39:19.440Z,0
2023-03-23T00:40:33.776Z,0
2023-03-23T00:41:48.058Z,0
2023-03-23T00:43:02.464Z,0
2023-03-23T00:44:16.890Z,0
2023-03-23T00:45:31.205Z,0
2023-03-23T00:46:45.494Z,0
2023-03-23T00:47:59.763Z,0
2023-03-23T00:49:14.177Z,0
2023-03-23T00:50:28.497Z,0
2023-03-23T00:51:42.770Z,0
2023-03-23T00:52:57.172Z,1
2023-03-23T00:54:11.533Z,0
2023-03-23T00:55:25.851Z,0
2023-03-23T00:56:40.128Z,0
2023-03-23T00:57:54.424Z,0
2023-03-23T00:59:08.830Z,0
2023-03-23T01:00:23.154Z,0
2023-03-23T01:01:37.427Z,0
2023-03-23T01:02:51.841Z,0
2023-03-23T01:04:06.245Z,0
2023-03-23T01:05:20.569Z,0
2023-03-23T01:06:34.842Z,0
2023-03-23T01:07:49.120Z,0
2023-03-23T01:09:03.533Z,0
2023-03-23T01:10:17.862Z,0
2023-03-23T01:11:32.143Z,0
2023-03-23T01:12:46.407Z,0
2023-03-23T01:14:00.814Z,0
2023-03-23T01:15:15.150Z,0
2023-03-23T01:16:29.433Z,0
2023-03-23T01:17:43.718Z,0
2023-03-23T01:18:58.112Z,0
2023-03-23T01:20:12.433Z,0
2023-03-23T01:21:26.726Z,0
2023-03-23T01:22:41.008Z,0
2023-03-23T01:23:55.397Z,0
2023-03-23T01:25:09.727Z,0
2023-03-23T01:26:24.015Z,0
2023-03-23T01:27:38.427Z,0
2023-03-23T01:28:52.852Z,0
2023-03-23T01:30:07.167Z,0
2023-03-23T01:31:21.446Z,0
2023-03-23T01:32:35.724Z,0
2023-03-23T01:33:50.144Z,0
2023-03-23T01:35:04.462Z,0
2023-03-23T01:36:18.741Z,0
2023-03-23T01:37:33.157Z,0
2023-03-23T01:38:47.578Z,0
2023-03-23T01:40:01.900Z,0
2023-03-23T01:41:16.175Z,0
2023-03-23T01:42:30.456Z,0
2023-03-23T01:43:44.851Z,0
2023-03-23T01:44:59.174Z,0
2023-03-23T01:46:13.471Z,0
2023-03-23T01:47:27.749Z,0
2023-03-23T01:48:42.145Z,0
2023-03-23T01:49:56.468Z,0
2023-03-23T01:51:10.760Z,0
2023-03-23T01:52:25.158Z,0
2023-03-23T01:53:39.560Z,0
2023-03-23T01:54:53.883Z,0
2023-03-23T01:56:08.164Z,0
2023-03-23T01:57:22.457Z,0
2023-03-23T01:58:36.858Z,0
2023-03-23T01:59:51.176Z,0
2023-03-23T02:01:05.454Z,0
2023-03-23T02:02:19.878Z,0
2023-03-23T02:04:48.592Z,0
2023-03-23T02:06:02.867Z,0
2023-03-23T02:07:17.302Z,0
2023-03-23T02:08:31.708Z,0
2023-03-23T02:09:46.030Z,0
2023-03-23T02:11:00.313Z,0
2023-03-23T02:12:14.740Z,0
2023-03-23T02:13:29.134Z,0
2023-03-23T02:14:43.473Z,0
2023-03-23T02:15:57.738Z,0
2023-03-23T02:17:12.148Z,0
2023-03-23T02:18:26.555Z,0
2023-03-23T02:19:40.874Z,0
2023-03-23T02:20:55.159Z,0
2023-03-23T02:22:09.439Z,0
2023-03-23T02:23:23.848Z,0
2023-03-23T02:24:38.169Z,0
2023-03-23T02:25:52.447Z,0
2023-03-23T02:27:06.740Z,0
2023-03-23T02:28:21.143Z,0
2023-03-23T02:29:35.463Z,0
2023-03-23T02:30:49.745Z,0
2023-03-23T02:32:04.017Z,0
2023-03-23T02:33:18.422Z,0
2023-03-23T02:34:32.752Z,0
2023-03-23T02:35:47.033Z,0
2023-03-23T02:37:01.438Z,0
2023-03-23T02:38:15.843Z,0
2023-03-23T02:39:30.177Z,0
2023-03-23T02:40:44.446Z,0
2023-03-23T02:41:58.883Z,0
2023-03-23T02:43:13.275Z,0
2023-03-23T02:44:27.598Z,0
2023-03-23T02:45:41.891Z,0
2023-03-23T02:46:56.316Z,0
2023-03-23T02:48:10.714Z,0
2023-03-23T02:49:25.042Z,0
2023-03-23T02:50:39.312Z,0
2023-03-23T02:51:53.604Z,0
2023-03-23T02:53:08.011Z,0
2023-03-23T02:54:22.331Z,0
2023-03-23T02:55:36.621Z,0
2023-03-23T02:56:51.019Z,0
2023-03-23T02:58:05.420Z,0
2023-03-23T02:59:19.744Z,0
2023-03-23T03:00:34.017Z,0
2023-03-23T03:01:48.302Z,0
2023-03-23T03:03:02.719Z,0
2023-03-23T03:04:17.038Z,0
2023-03-23T03:05:31.311Z,0
2023-03-23T03:06:45.607Z,0
2023-03-23T03:07:59.999Z,0
2023-03-23T03:09:14.000Z,0
2023-03-23T03:11:42.886Z,0
2023-03-23T03:12:57.313Z,0
2023-03-23T03:14:11.611Z,0
2023-03-23T03:15:25.899Z,0
2023-03-23T03:16:40.327Z,0
2023-03-23T03:17:54.738Z,0
2023-03-23T03:19:09.046Z,0
2023-03-23T03:20:23.345Z,0
2023-03-23T03:21:37.606Z,0
2023-03-23T03:22:52.026Z,0
2023-03-23T03:24:06.339Z,0
2023-03-23T03:25:20.619Z,0
2023-03-23T03:26:35.030Z,0
2023-03-23T03:27:49.427Z,0
2023-03-23T03:29:03.762Z,0
2023-03-23T03:30:18.040Z,0
2023-03-23T03:31:32.312Z,0
2023-03-23T03:32:46.720Z,0
2023-03-23T03:34:01.052Z,0
2023-03-23T03:35:15.341Z,0
2023-03-23T03:36:29.610Z,0
2023-03-23T03:37:44.009Z,0
2023-03-23T03:38:58.336Z,0
2023-03-23T03:41:26.901Z,0
2023-03-23T03:42:41.314Z,0
2023-03-23T03:43:55.636Z,0
2023-03-23T03:45:09.923Z,0
2023-03-23T03:46:24.344Z,0
2023-03-23T03:47:38.745Z,0
2023-03-23T03:48:53.060Z,0
2023-03-23T03:50:07.357Z,0
2023-03-23T03:51:21.780Z,0
2023-03-23T03:52:36.171Z,0
2023-03-23T03:53:50.500Z,0
2023-03-23T03:55:04.776Z,0
2023-03-23T03:56:19.072Z,0
2023-03-23T03:57:33.468Z,0
2023-03-23T03:58:47.793Z,0
2023-03-23T04:01:16.548Z,0
2023-03-23T04:02:30.815Z,0
2023-03-23T04:03:45.236Z,0
2023-03-23T04:04:59.552Z,0
2023-03-23T04:06:13.976Z,0
2023-03-23T04:07:28.294Z,0
2023-03-23T04:08:42.702Z,0
2023-03-23T04:09:57.121Z,0
2023-03-23T04:11:11.446Z,0
2023-03-23T04:12:25.707Z,0
2023-03-23T04:13:40.004Z,0
2023-03-23T04:14:54.403Z,0
2023-03-23T04:16:08.725Z,0
2023-03-23T04:17:23.009Z,0
2023-03-23T04:19:51.691Z,0
2023-03-23T04:21:06.029Z,0
2023-03-23T04:22:20.301Z,0
2023-03-23T04:23:34.589Z,0
2023-03-23T04:24:48.995Z,0
2023-03-23T04:26:03.310Z,0
2023-03-23T04:27:17.596Z,0
2023-03-23T04:28:31.995Z,0
2023-03-23T04:29:46.405Z,0
2023-03-23T04:31:00.722Z,0
2023-03-23T04:32:15.007Z,0
2023-03-23T04:33:29.289Z,0
2023-03-23T04:34:43.686Z,0
2023-03-23T04:35:58.008Z,0
2023-03-23T04:37:12.305Z,0
2023-03-23T04:39:41.127Z,0
2023-03-23T04:40:55.445Z,0
2023-03-23T04:42:09.723Z,0
2023-03-23T04:43:24.156Z,0
2023-03-23T04:44:38.563Z,0
2023-03-23T04:45:52.877Z,0
2023-03-23T04:47:07.154Z,0
2023-03-23T04:48:21.570Z,0
2023-03-23T04:50:50.298Z,0
2023-03-23T04:52:04.577Z,0
2023-03-23T04:53:18.811Z,1
2023-03-23T04:54:33.100Z,1
2023-03-23T04:55:47.342Z,1
2023-03-23T04:57:01.567Z,1
2023-03-23T04:58:15.844Z,0
2023-03-23T04:59:30.086Z,2
2023-03-23T05:00:44.374Z,2
2023-03-23T05:01:58.618Z,1
2023-03-23T05:03:12.847Z,3
2023-03-23T05:04:27.081Z,4
2023-03-23T05:05:41.288Z,4
2023-03-23T05:06:55.606Z,6
2023-03-23T05:08:09.846Z,10
2023-03-23T05:09:24.059Z,9
2023-03-23T05:10:38.424Z,14
2023-03-23T05:13:06.949Z,20
2023-03-23T05:14:21.194Z,22
2023-03-23T05:15:35.541Z,28
2023-03-23T05:16:49.780Z,32
2023-03-23T05:18:04.006Z,34
2023-03-23T05:19:18.307Z,41
2023-03-23T05:20:32.540Z,43
2023-03-23T05:21:46.772Z,53
2023-03-23T05:23:00.996Z,62
2023-03-23T05:24:15.221Z,64
2023-03-23T05:25:29.515Z,70
2023-03-23T05:26:43.754Z,76
2023-03-23T05:27:57.992Z,86
2023-03-23T05:29:12.220Z,94
2023-03-23T05:30:26.440Z,100
2023-03-23T05:31:40.739Z,113
2023-03-23T05:32:54.987Z,122
2023-03-23T05:34:09.212Z,134
2023-03-23T05:35:23.546Z,141
2023-03-23T05:36:37.789Z,150
2023-03-23T05:37:52.082Z,153
2023-03-23T05:39:06.316Z,180
2023-03-23T05:40:20.542Z,196
2023-03-23T05:41:34.782Z,192
2023-03-23T05:42:48.995Z,201
2023-03-23T05:44:03.289Z,221
2023-03-23T05:45:17.535Z,239
2023-03-23T05:46:31.757Z,301
2023-03-23T05:47:46.002Z,333
2023-03-23T05:49:00.215Z,324
2023-03-23T05:50:14.522Z,355
2023-03-23T05:51:28.757Z,406
2023-03-23T05:52:42.976Z,449
2023-03-23T05:53:57.203Z,493
2023-03-23T05:55:11.441Z,511
2023-03-23T05:56:25.740Z,496
2023-03-23T05:57:39.976Z,514
2023-03-23T05:58:54.213Z,609
2023-03-23T06:00:08.428Z,759
2023-03-23T06:01:22.654Z,858
2023-03-23T06:02:36.963Z,802
2023-03-23T06:03:51.203Z,578
2023-03-23T06:05:05.421Z,646
2023-03-23T06:06:19.658Z,639
2023-03-23T06:07:34.010Z,603
2023-03-23T06:08:48.314Z,351
2023-03-23T06:10:02.550Z,338
2023-03-23T06:11:16.788Z,545
2023-03-23T06:12:31.153Z,707
2023-03-23T06:13:45.505Z,724
2023-03-23T06:14:59.809Z,667
2023-03-23T06:16:14.039Z,705
2023-03-23T06:17:28.279Z,1062
2023-03-23T06:18:42.492Z,1358
2023-03-23T06:19:56.863Z,1412
2023-03-23T06:21:11.176Z,1561
2023-03-23T06:22:25.414Z,1688
2023-03-23T06:23:39.639Z,1695
2023-03-23T06:24:53.996Z,1807
2023-03-23T06:26:08.204Z,1812
2023-03-23T06:27:22.517Z,2218
2023-03-23T06:28:36.747Z,2459
2023-03-23T06:29:50.973Z,2404
2023-03-23T06:31:05.206Z,2045
2023-03-23T06:32:19.430Z,1941
2023-03-23T06:33:33.739Z,1479
2023-03-23T06:34:47.966Z,1112
2023-03-23T06:36:02.205Z,859
2023-03-23T06:37:16.420Z,834
2023-03-23T06:38:30.655Z,959
2023-03-23T06:39:44.940Z,651
2023-03-23T06:40:59.182Z,750
2023-03-23T06:42:13.533Z,1188
2023-03-23T06:43:27.759Z,1358
2023-03-23T06:44:41.993Z,1276
2023-03-23T06:45:56.285Z,1169
2023-03-23T06:47:10.528Z,1092
2023-03-23T06:48:24.761Z,1078
2023-03-23T06:49:38.985Z,1047
2023-03-23T06:50:53.221Z,1205
2023-03-23T06:52:07.521Z,1750
2023-03-23T06:53:21.749Z,1853
2023-03-23T06:54:35.986Z,2377
2023-03-23T06:55:50.208Z,2625
2023-03-23T06:57:04.422Z,2578
2023-03-23T06:58:18.727Z,2518
2023-03-23T06:59:32.968Z,2870
2023-03-23T07:00:47.313Z,3090
2023-03-23T07:02:01.540Z,2940
2023-03-23T07:03:15.769Z,2926
2023-03-23T07:04:30.073Z,3107
2023-03-23T07:05:44.320Z,3106
2023-03-23T07:06:58.530Z,3305
2023-03-23T07:08:12.767Z,3907
2023-03-23T07:09:26.985Z,4182
2023-03-23T07:10:41.285Z,3668
2023-03-23T07:11:55.539Z,2903
2023-03-23T07:13:09.765Z,3075
2023-03-23T07:14:23.989Z,3414
2023-03-23T07:15:38.212Z,3384
2023-03-23T07:16:52.509Z,3703
2023-03-23T07:18:06.744Z,3983
2023-03-23T07:19:21.123Z,4746
2023-03-23T07:20:35.343Z,4450
2023-03-23T07:21:49.577Z,4445
2023-03-23T07:23:03.870Z,4483
2023-03-23T07:24:18.118Z,5447
2023-03-23T07:25:32.331Z,5079
2023-03-23T07:26:46.562Z,4313
2023-03-23T07:28:00.800Z,4192
2023-03-23T07:29:15.088Z,2964
2023-03-23T07:30:29.325Z,2528
2023-03-23T07:31:43.694Z,2292
2023-03-23T07:32:57.921Z,2014
2023-03-23T07:34:12.149Z,1772
2023-03-23T07:35:26.446Z,1998
2023-03-23T07:36:40.692Z,2101
2023-03-23T07:37:54.913Z,2184
2023-03-23T07:39:09.151Z,2365
2023-03-23T07:40:23.368Z,2269
2023-03-23T07:41:37.666Z,2143
2023-03-23T07:42:51.909Z,2250
2023-03-23T07:44:06.140Z,1822
2023-03-23T07:45:20.359Z,2189
2023-03-23T07:46:34.589Z,2321
2023-03-23T07:47:48.890Z,2170
2023-03-23T07:49:03.143Z,2328
2023-03-23T07:50:17.362Z,2813
2023-03-23T07:51:31.587Z,3278
2023-03-23T07:52:45.811Z,2945
2023-03-23T07:54:00.115Z,3126
2023-03-23T07:55:14.352Z,2770
2023-03-23T07:56:28.592Z,2863
2023-03-23T07:57:42.802Z,3694
2023-03-23T07:58:57.032Z,3656
2023-03-23T08:00:11.342Z,3647
2023-03-23T08:02:39.855Z,2046
2023-03-23T08:03:53.194Z,1687
2023-03-23T08:05:07.498Z,1180
2023-03-23T08:06:21.771Z,1499
2023-03-23T08:07:35.131Z,1710
2023-03-23T08:08:48.458Z,1564
2023-03-23T08:10:02.734Z,1453
2023-03-23T08:11:17.033Z,1634
2023-03-23T08:12:31.385Z,2363
2023-03-23T08:13:45.627Z,2685
2023-03-23T08:14:59.928Z,3343
2023-03-23T08:16:14.152Z,3109
2023-03-23T08:17:28.387Z,2835
2023-03-23T08:18:42.619Z,2527
2023-03-23T08:19:56.835Z,1905
2023-03-23T08:21:11.132Z,1493
2023-03-23T08:22:25.373Z,1990
2023-03-23T08:23:39.608Z,1940
2023-03-23T08:24:53.839Z,2071
2023-03-23T08:26:08.062Z,2384
2023-03-23T08:27:22.355Z,3141
2023-03-23T08:28:36.609Z,4195
2023-03-23T08:29:50.830Z,4946
2023-03-23T08:31:05.056Z,4724
2023-03-23T08:32:19.287Z,4584
2023-03-23T08:33:33.582Z,4928
2023-03-23T08:34:47.824Z,5541
2023-03-23T08:36:02.039Z,5303
2023-03-23T08:37:16.267Z,6035
2023-03-23T08:38:30.493Z,6326
2023-03-23T08:39:44.789Z,6326
2023-03-23T08:40:59.030Z,6463
2023-03-23T08:42:13.265Z,6973
2023-03-23T08:43:27.557Z,6927
2023-03-23T08:44:40.845Z,6309
2023-03-23T08:45:55.081Z,6502
2023-03-23T08:47:09.320Z,6307
2023-03-23T08:48:23.529Z,6230
2023-03-23T08:49:37.756Z,6478
2023-03-23T08:52:06.311Z,8522
2023-03-23T08:53:20.540Z,8354
2023-03-23T08:54:34.761Z,8148
2023-03-23T08:55:48.981Z,9432
2023-03-23T08:57:03.281Z,9838
2023-03-23T08:58:17.517Z,9638
2023-03-23T08:59:31.755Z,9700
2023-03-23T09:00:45.982Z,9652
2023-03-23T09:02:00.206Z,10190
2023-03-23T09:03:14.501Z,9941
2023-03-23T09:04:28.744Z,9665
2023-03-23T09:05:42.980Z,9375
2023-03-23T09:06:57.199Z,10094
2023-03-23T09:08:11.415Z,9936
2023-03-23T09:09:25.723Z,10263
2023-03-23T09:10:39.971Z,10026
2023-03-23T09:11:54.191Z,8465
2023-03-23T09:13:08.424Z,7283
2023-03-23T09:14:22.641Z,7101
2023-03-23T09:15:36.996Z,6627
2023-03-23T09:16:51.279Z,6427
2023-03-23T09:18:05.688Z,5413
2023-03-23T09:19:19.977Z,4735
2023-03-23T09:20:34.253Z,4342
2023-03-23T09:21:48.553Z,3904
2023-03-23T09:23:02.832Z,4289
2023-03-23T09:24:16.128Z,4400
2023-03-23T09:25:30.366Z,4397
2023-03-23T09:26:44.661Z,3733
2023-03-23T09:27:58.905Z,3584
2023-03-23T09:29:13.135Z,2962
2023-03-23T09:31:41.582Z,2433
2023-03-23T09:35:24.346Z,2539
2023-03-23T09:36:38.565Z,3081
2023-03-23T09:37:52.800Z,2813
2023-03-23T09:39:07.091Z,2747
2023-03-23T09:40:21.336Z,2452
2023-03-23T09:41:35.569Z,2200
2023-03-23T09:42:49.800Z,1959
2023-03-23T09:44:04.011Z,1678
2023-03-23T09:45:18.328Z,1221
2023-03-23T09:46:32.559Z,969
2023-03-23T09:47:46.786Z,1865
2023-03-23T09:49:01.019Z,3286
2023-03-23T09:50:15.241Z,3247
2023-03-23T09:51:29.535Z,3944
2023-03-23T09:52:43.776Z,4691
2023-03-23T09:53:57.998Z,5394
2023-03-23T09:55:12.293Z,4950
2023-03-23T09:56:25.622Z,4485
2023-03-23T09:57:39.914Z,3808
2023-03-23T09:58:53.210Z,5767
2023-03-23T10:00:07.423Z,6414
2023-03-23T10:01:21.727Z,7354
2023-03-23T10:02:35.958Z,7959
2023-03-23T10:03:50.185Z,4554
2023-03-23T10:05:04.415Z,4974
2023-03-23T10:06:18.638Z,5086
2023-03-23T10:07:32.947Z,4528
2023-03-23T10:08:47.187Z,5584
2023-03-23T10:10:01.418Z,4421
2023-03-23T10:12:29.867Z,4286
2023-03-23T10:13:44.163Z,4037
2023-03-23T10:14:58.402Z,1545
2023-03-23T10:16:12.000Z,715
2023-03-23T10:17:26.853Z,708
2023-03-23T10:18:41.214Z,697
2023-03-23T10:19:55.508Z,947
2023-03-23T10:21:09.753Z,1459
2023-03-23T10:22:23.967Z,1803
2023-03-23T10:23:38.206Z,1799
2023-03-23T10:24:52.421Z,1995
2023-03-23T10:26:06.722Z,1745
2023-03-23T10:27:20.972Z,1462
2023-03-23T10:28:35.192Z,1766
2023-03-23T10:29:49.410Z,2046
2023-03-23T10:31:03.647Z,2148
2023-03-23T10:32:17.945Z,2067
2023-03-23T10:33:32.180Z,2433
2023-03-23T10:34:46.416Z,3359
2023-03-23T10:36:00.638Z,2527
2023-03-23T10:37:14.873Z,2261
2023-03-23T10:38:29.173Z,2344
2023-03-23T10:39:43.410Z,2387
2023-03-23T10:40:57.638Z,2229
2023-03-23T10:42:11.859Z,2525
2023-03-23T10:43:26.092Z,2816
2023-03-23T10:44:40.376Z,3621
2023-03-23T10:45:54.624Z,3811
2023-03-23T10:47:08.855Z,3983
2023-03-23T10:48:23.072Z,3214
2023-03-23T10:49:37.299Z,2957
2023-03-23T10:50:51.603Z,3016
2023-03-23T10:52:05.851Z,2971
2023-03-23T10:54:34.291Z,2817
2023-03-23T10:55:48.513Z,2857
2023-03-23T10:57:02.827Z,3257
2023-03-23T10:58:17.072Z,5294
2023-03-23T10:59:31.293Z,7630
2023-03-23T11:00:45.520Z,6388
2023-03-23T11:01:59.744Z,6076
2023-03-23T11:03:14.033Z,4518
2023-03-23T11:04:28.337Z,3561
2023-03-23T11:05:41.651Z,3852
2023-03-23T11:06:55.871Z,3990
2023-03-23T11:08:10.168Z,5763
2023-03-23T11:09:24.406Z,6779
2023-03-23T11:10:38.631Z,7630
2023-03-23T11:11:52.857Z,10023
2023-03-23T11:13:07.080Z,11261
2023-03-23T11:14:21.396Z,10289
2023-03-23T11:15:35.620Z,7699
2023-03-23T11:16:49.852Z,6747
2023-03-23T11:18:04.069Z,4180
2023-03-23T11:19:18.307Z,3330
2023-03-23T11:20:32.600Z,2203
2023-03-23T11:21:46.850Z,2125
2023-03-23T11:23:01.199Z,2490
2023-03-23T11:24:15.429Z,4339
2023-03-23T11:25:29.654Z,5421
2023-03-23T11:26:43.951Z,6704
2023-03-23T11:27:58.191Z,6526
2023-03-23T11:29:12.405Z,6017
2023-03-23T11:30:26.636Z,7290
2023-03-23T11:31:40.860Z,9435
2023-03-23T11:32:55.164Z,10805
2023-03-23T11:34:09.416Z,8331
2023-03-23T11:35:23.623Z,6499
2023-03-23T11:36:37.853Z,5910
2023-03-23T11:37:52.086Z,5905
2023-03-23T11:39:06.385Z,5919
2023-03-23T11:40:20.626Z,5863
2023-03-23T11:41:34.853Z,5775
2023-03-23T11:42:49.087Z,5845
2023-03-23T11:44:03.315Z,6451
2023-03-23T11:45:17.613Z,6150
2023-03-23T11:46:31.837Z,5404
2023-03-23T11:47:46.077Z,6603
2023-03-23T11:49:00.306Z,12147
2023-03-23T11:50:14.535Z,17104
2023-03-23T11:51:28.823Z,13220
2023-03-23T11:52:43.057Z,7784
2023-03-23T11:53:57.290Z,6158
2023-03-23T11:55:11.513Z,5084
2023-03-23T11:56:25.747Z,5455
2023-03-23T11:57:40.039Z,5646
2023-03-23T11:58:54.291Z,5175
2023-03-23T12:00:08.508Z,4781
2023-03-23T12:01:22.733Z,5821
2023-03-23T12:02:36.972Z,7543
2023-03-23T12:03:51.273Z,7574
2023-03-23T12:05:05.496Z,8914
2023-03-23T12:06:19.736Z,9471
2023-03-23T12:07:33.961Z,6774
2023-03-23T12:08:48.250Z,4627
2023-03-23T12:10:02.533Z,9973
2023-03-23T12:11:16.813Z,8599
2023-03-23T12:12:30.127Z,8728
2023-03-23T12:14:58.643Z,5514
2023-03-23T12:17:27.105Z,6909
2023-03-23T12:18:41.346Z,6300
2023-03-23T12:19:55.568Z,5901
2023-03-23T12:21:09.856Z,3666
2023-03-23T12:22:24.096Z,2687
2023-03-23T12:23:38.000Z,2862
2023-03-23T12:24:52.547Z,3017
2023-03-23T12:26:06.784Z,2855
2023-03-23T12:27:21.074Z,2681
2023-03-23T12:28:35.327Z,5744
2023-03-23T12:29:49.546Z,7506
2023-03-23T12:31:03.766Z,8544
2023-03-23T12:32:18.004Z,11222
2023-03-23T12:33:32.296Z,11174
2023-03-23T12:34:46.540Z,15904
2023-03-23T12:36:00.776Z,14372
2023-03-23T12:37:14.987Z,13411
2023-03-23T12:38:29.229Z,13131
2023-03-23T12:40:57.772Z,9252
2023-03-23T12:42:11.988Z,8528
2023-03-23T12:43:26.265Z,9397
2023-03-23T12:44:39.604Z,10178
2023-03-23T12:45:53.891Z,9218
2023-03-23T12:47:07.176Z,8318
2023-03-23T12:48:21.410Z,7354
2023-03-23T12:49:35.707Z,8232
2023-03-23T12:50:49.956Z,12297
2023-03-23T12:52:04.184Z,13466
2023-03-23T12:53:18.411Z,13546
2023-03-23T12:54:32.621Z,14026
2023-03-23T12:55:46.927Z,10723
2023-03-23T12:57:01.169Z,9871
2023-03-23T12:58:15.405Z,9827
2023-03-23T12:59:29.626Z,10150
2023-03-23T13:00:43.855Z,14361
2023-03-23T13:01:58.142Z,9561
2023-03-23T13:03:12.400Z,12921
2023-03-23T13:04:26.612Z,80893
2023-03-23T13:05:40.852Z,19285
2023-03-23T13:06:55.070Z,20632
2023-03-23T13:08:09.369Z,13072
2023-03-23T13:09:23.602Z,11231
2023-03-23T13:10:37.843Z,7570
2023-03-23T13:11:52.066Z,7166
2023-03-23T13:13:06.299Z,6724
2023-03-23T13:14:20.594Z,9046
2023-03-23T13:15:34.827Z,7019
2023-03-23T13:16:49.051Z,6090
2023-03-23T13:18:03.337Z,7016
2023-03-23T13:19:16.666Z,6120
2023-03-23T13:20:30.000Z,3833
2023-03-23T13:22:58.483Z,10636
2023-03-23T13:24:12.778Z,6963
2023-03-23T13:25:27.013Z,5633
2023-03-23T13:26:41.253Z,4026
2023-03-23T13:27:55.470Z,3336
2023-03-23T13:29:09.692Z,2436
2023-03-23T13:30:23.989Z,4169
2023-03-23T13:31:38.247Z,3814
2023-03-23T13:34:06.698Z,3195
2023-03-23T13:35:20.919Z,3284
2023-03-23T13:36:35.212Z,2195
2023-03-23T13:37:49.450Z,2239
2023-03-23T13:39:03.689Z,4247
2023-03-23T13:40:17.907Z,7475
2023-03-23T13:44:00.794Z,12441
2023-03-23T13:45:15.020Z,9209
2023-03-23T13:46:29.260Z,7861
2023-03-23T13:48:57.784Z,8012
2023-03-23T13:50:12.023Z,5552
2023-03-23T13:51:26.240Z,12401
2023-03-23T13:52:40.481Z,25636
2023-03-23T13:55:08.998Z,12507
2023-03-23T13:56:23.231Z,18385
2023-03-23T13:57:37.457Z,7155
2023-03-23T13:58:51.697Z,8855
2023-03-23T14:00:05.927Z,11300
2023-03-23T14:01:20.216Z,11053
2023-03-23T14:02:34.460Z,11049
2023-03-23T14:03:48.682Z,14009
2023-03-23T14:05:02.916Z,14659
2023-03-23T14:06:17.138Z,14710
2023-03-23T14:07:31.435Z,11823
2023-03-23T14:08:45.673Z,10553
2023-03-23T14:09:59.908Z,10862
2023-03-23T14:11:14.139Z,9867
2023-03-23T14:12:28.364Z,7940
2023-03-23T14:13:42.659Z,9015
2023-03-23T14:14:56.892Z,8143
2023-03-23T14:16:11.130Z,11169
2023-03-23T14:18:39.570Z,7862
2023-03-23T14:19:53.874Z,24015
2023-03-23T14:21:08.127Z,4832
2023-03-23T14:22:22.340Z,4359
2023-03-23T14:24:50.806Z,14826
2023-03-23T14:26:05.091Z,19019
2023-03-23T14:27:19.394Z,15175
2023-03-23T14:28:32.738Z,26582
2023-03-23T14:29:46.031Z,18624
2023-03-23T14:31:00.273Z,4697
2023-03-23T14:32:14.489Z,20958
2023-03-23T14:33:28.707Z,9801
2023-03-23T14:34:42.945Z,15101
2023-03-23T14:35:57.238Z,3705
2023-03-23T14:38:25.701Z,8847
2023-03-23T14:39:39.934Z,9647
2023-03-23T14:40:54.165Z,6400
2023-03-23T14:42:08.470Z,7082
2023-03-23T14:43:22.706Z,7654
2023-03-23T14:44:36.939Z,6896
2023-03-23T14:45:51.157Z,6772
2023-03-23T14:47:05.376Z,6826
2023-03-23T14:48:19.673Z,4816
2023-03-23T14:49:33.925Z,5783
2023-03-23T14:50:48.151Z,6359
2023-03-23T14:52:02.367Z,7039
2023-03-23T14:53:16.593Z,7596
2023-03-23T14:54:30.904Z,5213
2023-03-23T14:55:45.145Z,4574
2023-03-23T14:56:59.358Z,4973
2023-03-23T14:58:13.589Z,4549
2023-03-23T14:59:27.828Z,3979
2023-03-23T15:00:42.179Z,4611
2023-03-23T15:01:56.466Z,6126
2023-03-23T15:03:09.747Z,6036
2023-03-23T15:04:23.982Z,7980
2023-03-23T15:05:38.287Z,5857
2023-03-23T15:06:52.524Z,4170
2023-03-23T15:08:06.752Z,8237
2023-03-23T15:09:20.975Z,7382
2023-03-23T15:10:35.211Z,6147
2023-03-23T15:11:49.510Z,6435
2023-03-23T15:13:03.738Z,6723
2023-03-23T15:14:17.970Z,4313
2023-03-23T15:15:32.197Z,4948
2023-03-23T15:16:46.415Z,7022
2023-03-23T15:18:00.722Z,5894
2023-03-23T15:19:14.954Z,4409
2023-03-23T15:20:29.196Z,6540
2023-03-23T15:21:43.413Z,5735
2023-03-23T15:22:57.638Z,6734
2023-03-23T15:24:11.941Z,5860
2023-03-23T15:25:26.174Z,5319
2023-03-23T15:26:40.418Z,5378
2023-03-23T15:27:54.642Z,4556
2023-03-23T15:29:08.853Z,4062
2023-03-23T15:30:23.171Z,3490
2023-03-23T15:31:37.403Z,5140
2023-03-23T15:32:51.637Z,8721
2023-03-23T15:34:05.914Z,8868
2023-03-23T15:35:19.266Z,9571
2023-03-23T15:36:33.533Z,8198
2023-03-23T15:37:46.839Z,5005
2023-03-23T15:39:01.062Z,4453
2023-03-23T15:40:15.363Z,5750
2023-03-23T15:41:29.598Z,6930
2023-03-23T15:42:43.825Z,4450
2023-03-23T15:43:58.054Z,5920
2023-03-23T15:45:12.292Z,2263
2023-03-23T15:46:26.585Z,7881
2023-03-23T15:47:40.824Z,6501
2023-03-23T15:48:55.042Z,4424
2023-03-23T15:50:09.276Z,3853
2023-03-23T15:51:23.512Z,3703
2023-03-23T15:52:37.803Z,3846
2023-03-23T15:53:52.041Z,3587
2023-03-23T15:55:06.280Z,3427
2023-03-23T15:56:20.489Z,3517
2023-03-23T15:57:34.721Z,3300
2023-03-23T15:58:49.026Z,3314
2023-03-23T16:00:03.261Z,3248
2023-03-23T16:01:17.497Z,3238
2023-03-23T16:02:31.718Z,3173
2023-03-23T16:03:45.949Z,3166
2023-03-23T16:05:00.252Z,3241
2023-03-23T16:06:14.481Z,3069
2023-03-23T16:07:28.700Z,2984
2023-03-23T16:08:42.999Z,2885
2023-03-23T16:09:57.405Z,2837
2023-03-23T16:11:11.707Z,2770
2023-03-23T16:12:25.973Z,2668
2023-03-23T16:13:39.344Z,2405
2023-03-23T16:14:52.666Z,2487
2023-03-23T16:16:06.958Z,2204
2023-03-23T16:17:21.238Z,2045
2023-03-23T16:18:34.534Z,2039
2023-03-23T16:19:48.820Z,2043
2023-03-23T16:21:03.069Z,2108
2023-03-23T16:22:17.299Z,2315
2023-03-23T16:23:31.529Z,2277
2023-03-23T16:26:00.042Z,2357
2023-03-23T16:27:14.291Z,2627
2023-03-23T16:28:28.523Z,2753
2023-03-23T16:29:42.737Z,2719
2023-03-23T16:30:56.966Z,2754
2023-03-23T16:32:11.271Z,2323
2023-03-23T16:33:25.500Z,2113
2023-03-23T16:34:39.727Z,1935
2023-03-23T16:35:53.964Z,1805
2023-03-23T16:37:08.181Z,1720
2023-03-23T16:38:22.496Z,1622
2023-03-23T16:39:36.723Z,1644
2023-03-23T16:40:50.962Z,1762
2023-03-23T16:42:05.174Z,1838
2023-03-23T16:43:19.404Z,1790
2023-03-23T16:44:33.698Z,1745
2023-03-23T16:45:47.946Z,1754
2023-03-23T16:47:02.174Z,1722
2023-03-23T16:48:16.399Z,1844
2023-03-23T16:49:30.689Z,1922
2023-03-23T16:50:44.977Z,1860
2023-03-23T16:51:59.271Z,1607
2023-03-23T16:53:12.559Z,1355
2023-03-23T16:54:26.792Z,1277
2023-03-23T16:55:41.089Z,1159
2023-03-23T16:58:09.557Z,1037
2023-03-23T16:59:23.781Z,984
2023-03-23T17:00:38.004Z,932
2023-03-23T17:01:52.304Z,882
2023-03-23T17:03:06.541Z,782
2023-03-23T17:04:20.783Z,661
2023-03-23T17:05:35.000Z,567
2023-03-23T17:06:49.221Z,494
2023-03-23T17:08:03.532Z,458
2023-03-23T17:09:17.772Z,416
2023-03-23T17:10:31.999Z,417
2023-03-23T17:11:46.228Z,468
2023-03-23T17:13:00.445Z,437
2023-03-23T17:14:14.735Z,384
2023-03-23T17:15:28.980Z,356
2023-03-23T17:16:43.220Z,321
2023-03-23T17:17:57.432Z,371
2023-03-23T17:19:11.659Z,399
2023-03-23T17:20:25.955Z,437
2023-03-23T17:21:40.196Z,373
2023-03-23T17:22:54.435Z,334
2023-03-23T17:24:08.725Z,301
2023-03-23T17:25:22.005Z,265
2023-03-23T17:26:36.247Z,233
2023-03-23T17:27:50.484Z,213
2023-03-23T17:29:04.699Z,193
2023-03-23T17:30:18.939Z,185
2023-03-23T17:31:33.230Z,153
2023-03-23T17:34:01.707Z,147
2023-03-23T17:35:15.923Z,160
2023-03-23T17:36:30.160Z,161
2023-03-23T17:37:44.456Z,147
2023-03-23T17:38:58.702Z,147